sensor_id;sensor_type;location;lat;lon;timestamp;P1;durP1;ratioP1;P2;durP2;ratioP2
47539;SDS011;33280;52.152;21.052;2023-05-24T00:02:19;10.63;;;6.90;;
47539;SDS011;33280;52.152;21.052;2023-05-24T00:04:46;13.63;;;7.07;;
47539;SDS011;33280;52.152;21.052;2023-05-24T00:07:14;13.30;;;7.63;;
47539;SDS011;33280;52.152;21.052;2023-05-24T00:09:41;11.10;;;7.40;;
47539;SDS011;33280;52.152;21.052;2023-05-24T00:12:08;12.93;;;7.20;;
47539;SDS011;33280;52.152;21.052;2023-05-24T00:14:36;14.00;;;7.73;;
47539;SDS011;33280;52.152;21.052;2023-05-24T00:17:03;12.43;;;7.43;;
47539;SDS011;33280;52.152;21.052;2023-05-24T00:19:30;11.17;;;7.83;;
47539;SDS011;33280;52.152;21.052;2023-05-24T00:21:57;10.87;;;7.17;;
47539;SDS011;33280;52.152;21.052;2023-05-24T00:24:24;13.07;;;7.30;;
47539;SDS011;33280;52.152;21.052;2023-05-24T00:26:51;9.77;;;6.87;;
47539;SDS011;33280;52.152;21.052;2023-05-24T00:29:18;13.07;;;7.60;;
47539;SDS011;33280;52.152;21.052;2023-05-24T00:31:45;11.77;;;7.23;;
47539;SDS011;33280;52.152;21.052;2023-05-24T00:34:12;12.00;;;7.20;;
47539;SDS011;33280;52.152;21.052;2023-05-24T00:36:39;11.40;;;6.97;;
47539;SDS011;33280;52.152;21.052;2023-05-24T00:39:06;11.83;;;7.23;;
47539;SDS011;33280;52.152;21.052;2023-05-24T00:41:33;10.17;;;7.10;;
47539;SDS011;33280;52.152;21.052;2023-05-24T00:44:00;9.27;;;6.60;;
47539;SDS011;33280;52.152;21.052;2023-05-24T00:46:28;12.03;;;7.20;;
47539;SDS011;33280;52.152;21.052;2023-05-24T00:48:57;13.20;;;6.80;;
47539;SDS011;33280;52.152;21.052;2023-05-24T00:51:26;10.30;;;7.17;;
47539;SDS011;33280;52.152;21.052;2023-05-24T00:53:54;10.27;;;6.70;;
47539;SDS011;33280;52.152;21.052;2023-05-24T00:56:22;12.93;;;6.90;;
47539;SDS011;33280;52.152;21.052;2023-05-24T00:58:49;10.27;;;6.17;;
47539;SDS011;33280;52.152;21.052;2023-05-24T01:01:20;10.67;;;6.23;;
47539;SDS011;33280;52.152;21.052;2023-05-24T01:03:54;9.80;;;6.47;;
47539;SDS011;33280;52.152;21.052;2023-05-24T01:06:22;11.27;;;6.80;;
47539;SDS011;33280;52.152;21.052;2023-05-24T01:11:49;11.43;;;6.47;;
47539;SDS011;33280;52.152;21.052;2023-05-24T01:14:38;12.17;;;7.10;;
47539;SDS011;33280;52.152;21.052;2023-05-24T01:17:22;11.30;;;7.10;;
47539;SDS011;33280;52.152;21.052;2023-05-24T01:20:17;9.60;;;6.67;;
47539;SDS011;33280;52.152;21.052;2023-05-24T01:28:26;10.67;;;7.10;;
47539;SDS011;33280;52.152;21.052;2023-05-24T01:30:54;11.40;;;6.37;;
47539;SDS011;33280;52.152;21.052;2023-05-24T01:33:21;11.80;;;7.17;;
47539;SDS011;33280;52.152;21.052;2023-05-24T01:35:48;9.87;;;6.73;;
47539;SDS011;33280;52.152;21.052;2023-05-24T01:38:15;10.93;;;6.63;;
47539;SDS011;33280;52.152;21.052;2023-05-24T01:40:42;9.13;;;6.60;;
47539;SDS011;33280;52.152;21.052;2023-05-24T01:43:17;9.40;;;7.07;;
47539;SDS011;33280;52.152;21.052;2023-05-24T01:46:12;9.33;;;6.73;;
47539;SDS011;33280;52.152;21.052;2023-05-24T01:51:55;10.83;;;6.50;;
47539;SDS011;33280;52.152;21.052;2023-05-24T01:54:30;9.20;;;6.60;;
47539;SDS011;33280;52.152;21.052;2023-05-24T01:57:03;12.00;;;6.80;;
47539;SDS011;33280;52.152;21.052;2023-05-24T01:59:32;11.50;;;6.53;;
47539;SDS011;33280;52.152;21.052;2023-05-24T02:02:01;9.03;;;6.60;;
47539;SDS011;33280;52.152;21.052;2023-05-24T02:04:28;10.40;;;6.63;;
47539;SDS011;33280;52.152;21.052;2023-05-24T02:06:59;9.57;;;6.33;;
47539;SDS011;33280;52.152;21.052;2023-05-24T02:09:26;11.20;;;6.70;;
47539;SDS011;33280;52.152;21.052;2023-05-24T02:11:53;10.03;;;6.73;;
47539;SDS011;33280;52.152;21.052;2023-05-24T02:14:20;10.23;;;6.40;;
47539;SDS011;33280;52.152;21.052;2023-05-24T02:16:47;10.07;;;6.80;;
47539;SDS011;33280;52.152;21.052;2023-05-24T02:19:19;10.43;;;6.63;;
47539;SDS011;33280;52.152;21.052;2023-05-24T02:21:46;10.73;;;6.60;;
47539;SDS011;33280;52.152;21.052;2023-05-24T02:24:14;9.33;;;6.27;;
47539;SDS011;33280;52.152;21.052;2023-05-24T02:26:41;12.33;;;6.57;;
47539;SDS011;33280;52.152;21.052;2023-05-24T02:29:08;11.43;;;6.70;;
47539;SDS011;33280;52.152;21.052;2023-05-24T02:31:36;9.73;;;6.60;;
47539;SDS011;33280;52.152;21.052;2023-05-24T02:34:03;8.93;;;6.57;;
47539;SDS011;33280;52.152;21.052;2023-05-24T02:36:30;10.67;;;6.37;;
47539;SDS011;33280;52.152;21.052;2023-05-24T02:38:58;11.97;;;7.03;;
47539;SDS011;33280;52.152;21.052;2023-05-24T02:41:25;8.63;;;6.47;;
47539;SDS011;33280;52.152;21.052;2023-05-24T02:43:52;8.63;;;6.37;;
47539;SDS011;33280;52.152;21.052;2023-05-24T02:46:19;11.40;;;6.60;;
47539;SDS011;33280;52.152;21.052;2023-05-24T02:48:46;10.87;;;6.47;;
47539;SDS011;33280;52.152;21.052;2023-05-24T02:51:15;11.53;;;6.33;;
47539;SDS011;33280;52.152;21.052;2023-05-24T02:53:42;11.97;;;6.50;;
47539;SDS011;33280;52.152;21.052;2023-05-24T02:56:11;11.73;;;6.53;;
47539;SDS011;33280;52.152;21.052;2023-05-24T02:58:39;9.23;;;6.40;;
47539;SDS011;33280;52.152;21.052;2023-05-24T03:01:06;7.10;;;6.10;;
47539;SDS011;33280;52.152;21.052;2023-05-24T03:03:34;10.83;;;6.50;;
47539;SDS011;33280;52.152;21.052;2023-05-24T03:06:01;9.30;;;6.37;;
47539;SDS011;33280;52.152;21.052;2023-05-24T03:08:28;10.60;;;6.10;;
47539;SDS011;33280;52.152;21.052;2023-05-24T03:10:55;11.00;;;6.27;;
47539;SDS011;33280;52.152;21.052;2023-05-24T03:13:22;10.03;;;6.43;;
47539;SDS011;33280;52.152;21.052;2023-05-24T03:15:49;9.67;;;6.30;;
47539;SDS011;33280;52.152;21.052;2023-05-24T03:18:16;8.17;;;5.80;;
47539;SDS011;33280;52.152;21.052;2023-05-24T03:20:43;10.13;;;6.10;;
47539;SDS011;33280;52.152;21.052;2023-05-24T03:23:11;9.70;;;5.93;;
47539;SDS011;33280;52.152;21.052;2023-05-24T03:25:38;9.13;;;5.90;;
47539;SDS011;33280;52.152;21.052;2023-05-24T03:28:05;10.40;;;6.17;;
47539;SDS011;33280;52.152;21.052;2023-05-24T03:30:35;9.43;;;5.80;;
47539;SDS011;33280;52.152;21.052;2023-05-24T03:33:03;10.87;;;5.93;;
47539;SDS011;33280;52.152;21.052;2023-05-24T03:35:30;9.40;;;6.27;;
47539;SDS011;33280;52.152;21.052;2023-05-24T03:37:57;18.80;;;6.23;;
47539;SDS011;33280;52.152;21.052;2023-05-24T03:40:24;9.27;;;6.00;;
47539;SDS011;33280;52.152;21.052;2023-05-24T03:42:51;9.67;;;6.17;;
47539;SDS011;33280;52.152;21.052;2023-05-24T03:45:18;8.30;;;5.93;;
47539;SDS011;33280;52.152;21.052;2023-05-24T03:48:04;11.13;;;5.73;;
47539;SDS011;33280;52.152;21.052;2023-05-24T03:50:31;8.87;;;6.10;;
47539;SDS011;33280;52.152;21.052;2023-05-24T03:53:03;7.77;;;5.83;;
47539;SDS011;33280;52.152;21.052;2023-05-24T03:55:31;8.90;;;5.97;;
47539;SDS011;33280;52.152;21.052;2023-05-24T03:57:57;9.63;;;5.80;;
47539;SDS011;33280;52.152;21.052;2023-05-24T04:00:24;13.23;;;5.87;;
47539;SDS011;33280;52.152;21.052;2023-05-24T04:02:51;10.70;;;5.93;;
47539;SDS011;33280;52.152;21.052;2023-05-24T04:05:18;9.17;;;5.63;;
47539;SDS011;33280;52.152;21.052;2023-05-24T04:07:45;11.90;;;6.13;;
47539;SDS011;33280;52.152;21.052;2023-05-24T04:10:13;11.20;;;6.13;;
47539;SDS011;33280;52.152;21.052;2023-05-24T04:12:40;9.87;;;5.50;;
47539;SDS011;33280;52.152;21.052;2023-05-24T04:15:08;10.83;;;5.80;;
47539;SDS011;33280;52.152;21.052;2023-05-24T04:17:41;14.10;;;5.63;;
47539;SDS011;33280;52.152;21.052;2023-05-24T04:20:09;17.00;;;6.70;;
47539;SDS011;33280;52.152;21.052;2023-05-24T04:22:37;12.03;;;6.43;;
47539;SDS011;33280;52.152;21.052;2023-05-24T04:25:05;11.60;;;5.90;;
47539;SDS011;33280;52.152;21.052;2023-05-24T04:27:33;11.83;;;6.10;;
47539;SDS011;33280;52.152;21.052;2023-05-24T04:30:01;10.77;;;6.10;;
47539;SDS011;33280;52.152;21.052;2023-05-24T04:32:31;11.77;;;5.70;;
47539;SDS011;33280;52.152;21.052;2023-05-24T04:34:58;11.40;;;5.70;;
47539;SDS011;33280;52.152;21.052;2023-05-24T04:37:28;11.97;;;5.80;;
47539;SDS011;33280;52.152;21.052;2023-05-24T04:39:58;10.63;;;5.63;;
47539;SDS011;33280;52.152;21.052;2023-05-24T04:42:25;10.87;;;5.87;;
47539;SDS011;33280;52.152;21.052;2023-05-24T04:44:58;9.53;;;5.73;;
47539;SDS011;33280;52.152;21.052;2023-05-24T04:47:25;10.33;;;5.63;;
47539;SDS011;33280;52.152;21.052;2023-05-24T04:49:52;11.53;;;5.97;;
47539;SDS011;33280;52.152;21.052;2023-05-24T04:52:19;12.07;;;5.70;;
47539;SDS011;33280;52.152;21.052;2023-05-24T04:54:47;12.10;;;6.20;;
47539;SDS011;33280;52.152;21.052;2023-05-24T04:57:14;10.50;;;6.23;;
47539;SDS011;33280;52.152;21.052;2023-05-24T04:59:42;10.63;;;5.60;;
47539;SDS011;33280;52.152;21.052;2023-05-24T05:02:09;11.10;;;5.83;;
47539;SDS011;33280;52.152;21.052;2023-05-24T05:04:36;8.70;;;5.63;;
47539;SDS011;33280;52.152;21.052;2023-05-24T05:07:03;9.37;;;5.47;;
47539;SDS011;33280;52.152;21.052;2023-05-24T05:09:31;11.70;;;6.07;;
47539;SDS011;33280;52.152;21.052;2023-05-24T05:11:58;9.40;;;5.57;;
47539;SDS011;33280;52.152;21.052;2023-05-24T05:14:25;9.87;;;5.67;;
47539;SDS011;33280;52.152;21.052;2023-05-24T05:16:52;8.60;;;5.90;;
47539;SDS011;33280;52.152;21.052;2023-05-24T05:19:19;11.50;;;5.53;;
47539;SDS011;33280;52.152;21.052;2023-05-24T05:21:46;10.43;;;5.87;;
47539;SDS011;33280;52.152;21.052;2023-05-24T05:24:13;10.10;;;6.00;;
47539;SDS011;33280;52.152;21.052;2023-05-24T05:26:42;9.23;;;5.83;;
47539;SDS011;33280;52.152;21.052;2023-05-24T05:29:09;11.73;;;5.90;;
47539;SDS011;33280;52.152;21.052;2023-05-24T05:31:36;8.30;;;5.57;;
47539;SDS011;33280;52.152;21.052;2023-05-24T05:34:03;9.50;;;5.73;;
47539;SDS011;33280;52.152;21.052;2023-05-24T05:36:30;9.67;;;5.60;;
47539;SDS011;33280;52.152;21.052;2023-05-24T05:38:57;8.27;;;5.83;;
47539;SDS011;33280;52.152;21.052;2023-05-24T05:41:24;10.40;;;5.80;;
47539;SDS011;33280;52.152;21.052;2023-05-24T05:43:51;12.97;;;5.90;;
47539;SDS011;33280;52.152;21.052;2023-05-24T05:46:18;8.43;;;5.87;;
47539;SDS011;33280;52.152;21.052;2023-05-24T05:48:47;8.47;;;5.60;;
47539;SDS011;33280;52.152;21.052;2023-05-24T05:51:14;11.80;;;6.03;;
47539;SDS011;33280;52.152;21.052;2023-05-24T05:53:41;8.67;;;5.63;;
47539;SDS011;33280;52.152;21.052;2023-05-24T05:56:08;8.30;;;5.23;;
47539;SDS011;33280;52.152;21.052;2023-05-24T05:58:35;10.57;;;5.80;;
47539;SDS011;33280;52.152;21.052;2023-05-24T06:01:04;11.13;;;5.83;;
47539;SDS011;33280;52.152;21.052;2023-05-24T06:03:31;9.00;;;5.73;;
47539;SDS011;33280;52.152;21.052;2023-05-24T06:05:58;9.93;;;6.00;;
47539;SDS011;33280;52.152;21.052;2023-05-24T06:08:25;9.03;;;5.33;;
47539;SDS011;33280;52.152;21.052;2023-05-24T06:10:52;9.40;;;6.13;;
47539;SDS011;33280;52.152;21.052;2023-05-24T06:13:22;10.27;;;5.43;;
47539;SDS011;33280;52.152;21.052;2023-05-24T06:15:56;7.67;;;5.07;;
47539;SDS011;33280;52.152;21.052;2023-05-24T06:18:26;7.90;;;4.97;;
47539;SDS011;33280;52.152;21.052;2023-05-24T06:21:00;9.90;;;5.47;;
47539;SDS011;33280;52.152;21.052;2023-05-24T06:23:29;10.20;;;5.20;;
47539;SDS011;33280;52.152;21.052;2023-05-24T06:25:58;7.67;;;5.43;;
47539;SDS011;33280;52.152;21.052;2023-05-24T06:28:26;7.00;;;5.00;;
47539;SDS011;33280;52.152;21.052;2023-05-24T06:30:53;7.67;;;5.07;;
47539;SDS011;33280;52.152;21.052;2023-05-24T06:33:20;8.60;;;5.68;;
47539;SDS011;33280;52.152;21.052;2023-05-24T06:35:47;8.70;;;5.73;;
47539;SDS011;33280;52.152;21.052;2023-05-24T06:38:14;9.37;;;5.57;;
47539;SDS011;33280;52.152;21.052;2023-05-24T06:40:43;10.90;;;6.18;;
47539;SDS011;33280;52.152;21.052;2023-05-24T06:43:10;11.33;;;5.20;;
47539;SDS011;33280;52.152;21.052;2023-05-24T06:45:37;9.90;;;5.63;;
47539;SDS011;33280;52.152;21.052;2023-05-24T06:48:04;8.47;;;5.27;;
47539;SDS011;33280;52.152;21.052;2023-05-24T06:50:31;9.27;;;5.43;;
47539;SDS011;33280;52.152;21.052;2023-05-24T06:52:58;8.90;;;5.33;;
47539;SDS011;33280;52.152;21.052;2023-05-24T06:55:28;8.60;;;5.33;;
47539;SDS011;33280;52.152;21.052;2023-05-24T06:57:56;8.33;;;5.63;;
47539;SDS011;33280;52.152;21.052;2023-05-24T07:00:23;10.80;;;6.30;;
47539;SDS011;33280;52.152;21.052;2023-05-24T07:02:50;9.27;;;5.60;;
47539;SDS011;33280;52.152;21.052;2023-05-24T07:05:17;12.63;;;5.30;;
47539;SDS011;33280;52.152;21.052;2023-05-24T07:07:44;8.33;;;5.30;;
47539;SDS011;33280;52.152;21.052;2023-05-24T07:10:14;8.57;;;5.57;;
47539;SDS011;33280;52.152;21.052;2023-05-24T07:12:41;8.70;;;6.00;;
47539;SDS011;33280;52.152;21.052;2023-05-24T07:15:08;11.30;;;5.80;;
47539;SDS011;33280;52.152;21.052;2023-05-24T07:17:36;8.87;;;5.57;;
47539;SDS011;33280;52.152;21.052;2023-05-24T07:20:03;9.30;;;6.50;;
47539;SDS011;33280;52.152;21.052;2023-05-24T07:22:35;9.20;;;5.20;;
47539;SDS011;33280;52.152;21.052;2023-05-24T07:25:03;10.30;;;5.77;;
47539;SDS011;33280;52.152;21.052;2023-05-24T07:27:30;8.57;;;5.40;;
47539;SDS011;33280;52.152;21.052;2023-05-24T07:29:57;12.97;;;5.60;;
47539;SDS011;33280;52.152;21.052;2023-05-24T07:32:24;7.43;;;5.43;;
47539;SDS011;33280;52.152;21.052;2023-05-24T07:34:52;11.33;;;5.43;;
47539;SDS011;33280;52.152;21.052;2023-05-24T07:37:19;9.63;;;5.63;;
47539;SDS011;33280;52.152;21.052;2023-05-24T07:39:49;8.57;;;5.70;;
47539;SDS011;33280;52.152;21.052;2023-05-24T07:42:17;8.57;;;5.43;;
47539;SDS011;33280;52.152;21.052;2023-05-24T07:44:44;8.80;;;5.77;;
47539;SDS011;33280;52.152;21.052;2023-05-24T07:47:12;7.63;;;5.53;;
47539;SDS011;33280;52.152;21.052;2023-05-24T07:49:39;8.53;;;5.57;;
47539;SDS011;33280;52.152;21.052;2023-05-24T07:52:06;10.57;;;5.83;;
47539;SDS011;33280;52.152;21.052;2023-05-24T07:54:42;8.83;;;5.90;;
47539;SDS011;33280;52.152;21.052;2023-05-24T07:57:09;8.30;;;5.47;;
47539;SDS011;33280;52.152;21.052;2023-05-24T07:59:36;10.20;;;5.60;;
47539;SDS011;33280;52.152;21.052;2023-05-24T08:02:03;10.53;;;5.73;;
47539;SDS011;33280;52.152;21.052;2023-05-24T08:04:31;8.95;;;6.10;;
47539;SDS011;33280;52.152;21.052;2023-05-24T08:07:01;9.20;;;5.90;;
47539;SDS011;33280;52.152;21.052;2023-05-24T08:09:29;10.43;;;6.03;;
47539;SDS011;33280;52.152;21.052;2023-05-24T08:11:59;11.18;;;6.10;;
47539;SDS011;33280;52.152;21.052;2023-05-24T08:14:26;8.15;;;5.82;;
47539;SDS011;33280;52.152;21.052;2023-05-24T08:16:53;13.18;;;6.28;;
47539;SDS011;33280;52.152;21.052;2023-05-24T08:19:20;10.55;;;6.20;;
47539;SDS011;33280;52.152;21.052;2023-05-24T08:21:47;11.93;;;6.22;;
47539;SDS011;33280;52.152;21.052;2023-05-24T08:24:14;12.18;;;6.03;;
47539;SDS011;33280;52.152;21.052;2023-05-24T08:26:42;8.45;;;6.70;;
47539;SDS011;33280;52.152;21.052;2023-05-24T08:29:10;10.18;;;6.07;;
47539;SDS011;33280;52.152;21.052;2023-05-24T08:31:37;8.88;;;6.22;;
47539;SDS011;33280;52.152;21.052;2023-05-24T08:34:04;12.15;;;6.07;;
47539;SDS011;33280;52.152;21.052;2023-05-24T08:36:31;10.95;;;5.72;;
47539;SDS011;33280;52.152;21.052;2023-05-24T08:38:58;9.13;;;5.63;;
47539;SDS011;33280;52.152;21.052;2023-05-24T08:41:25;12.00;;;5.85;;
47539;SDS011;33280;52.152;21.052;2023-05-24T08:43:54;10.52;;;6.22;;
47539;SDS011;33280;52.152;21.052;2023-05-24T08:46:25;9.25;;;5.80;;
47539;SDS011;33280;52.152;21.052;2023-05-24T08:48:53;12.15;;;5.70;;
47539;SDS011;33280;52.152;21.052;2023-05-24T08:51:23;12.65;;;5.60;;
47539;SDS011;33280;52.152;21.052;2023-05-24T08:53:50;7.38;;;5.25;;
47539;SDS011;33280;52.152;21.052;2023-05-24T08:56:17;7.07;;;5.07;;
47539;SDS011;33280;52.152;21.052;2023-05-24T08:58:44;9.00;;;5.85;;
47539;SDS011;33280;52.152;21.052;2023-05-24T09:01:13;7.80;;;5.47;;
47539;SDS011;33280;52.152;21.052;2023-05-24T09:03:42;9.30;;;5.55;;
47539;SDS011;33280;52.152;21.052;2023-05-24T09:06:12;8.70;;;5.05;;
47539;SDS011;33280;52.152;21.052;2023-05-24T09:08:41;9.20;;;5.43;;
47539;SDS011;33280;52.152;21.052;2023-05-24T09:11:09;8.65;;;5.25;;
47539;SDS011;33280;52.152;21.052;2023-05-24T09:13:37;13.55;;;5.55;;
47539;SDS011;33280;52.152;21.052;2023-05-24T09:16:05;6.15;;;5.07;;
47539;SDS011;33280;52.152;21.052;2023-05-24T09:18:32;7.57;;;5.10;;
47539;SDS011;33280;52.152;21.052;2023-05-24T09:20:59;10.00;;;5.13;;
47539;SDS011;33280;52.152;21.052;2023-05-24T09:23:26;7.75;;;4.97;;
47539;SDS011;33280;52.152;21.052;2023-05-24T09:25:56;7.38;;;4.90;;
47539;SDS011;33280;52.152;21.052;2023-05-24T09:28:23;6.03;;;4.97;;
47539;SDS011;33280;52.152;21.052;2023-05-24T09:30:57;8.48;;;4.80;;
47539;SDS011;33280;52.152;21.052;2023-05-24T09:33:32;8.68;;;5.45;;
47539;SDS011;33280;52.152;21.052;2023-05-24T09:36:01;8.82;;;5.45;;
47539;SDS011;33280;52.152;21.052;2023-05-24T09:38:29;10.68;;;5.32;;
47539;SDS011;33280;52.152;21.052;2023-05-24T09:41:00;10.27;;;5.05;;
47539;SDS011;33280;52.152;21.052;2023-05-24T09:43:32;6.95;;;4.97;;
47539;SDS011;33280;52.152;21.052;2023-05-24T09:46:02;8.18;;;5.43;;
47539;SDS011;33280;52.152;21.052;2023-05-24T09:48:30;7.57;;;5.25;;
47539;SDS011;33280;52.152;21.052;2023-05-24T09:50:58;9.15;;;5.75;;
47539;SDS011;33280;52.152;21.052;2023-05-24T09:53:29;9.55;;;5.55;;
47539;SDS011;33280;52.152;21.052;2023-05-24T09:55:59;8.50;;;5.60;;
47539;SDS011;33280;52.152;21.052;2023-05-24T09:58:29;8.00;;;5.53;;
47539;SDS011;33280;52.152;21.052;2023-05-24T10:01:05;9.23;;;5.57;;
47539;SDS011;33280;52.152;21.052;2023-05-24T10:03:34;7.97;;;5.22;;
47539;SDS011;33280;52.152;21.052;2023-05-24T10:06:04;9.93;;;7.00;;
47539;SDS011;33280;52.152;21.052;2023-05-24T10:08:33;13.55;;;7.13;;
47539;SDS011;33280;52.152;21.052;2023-05-24T10:11:01;11.40;;;7.03;;
47539;SDS011;33280;52.152;21.052;2023-05-24T10:13:33;14.35;;;7.60;;
47539;SDS011;33280;52.152;21.052;2023-05-24T10:16:02;11.50;;;7.00;;
47539;SDS011;33280;52.152;21.052;2023-05-24T10:18:29;11.32;;;7.03;;
47539;SDS011;33280;52.152;21.052;2023-05-24T10:20:56;12.23;;;6.57;;
47539;SDS011;33280;52.152;21.052;2023-05-24T10:23:28;12.40;;;7.15;;
47539;SDS011;33280;52.152;21.052;2023-05-24T10:26:07;11.73;;;7.50;;
47539;SDS011;33280;52.152;21.052;2023-05-24T10:28:35;13.35;;;7.78;;
47539;SDS011;33280;52.152;21.052;2023-05-24T10:33:42;14.35;;;7.10;;
47539;SDS011;33280;52.152;21.052;2023-05-24T10:36:12;11.90;;;7.57;;
47539;SDS011;33280;52.152;21.052;2023-05-24T10:38:40;16.98;;;7.70;;
47539;SDS011;33280;52.152;21.052;2023-05-24T10:41:07;11.80;;;7.50;;
47539;SDS011;33280;52.152;21.052;2023-05-24T10:43:35;13.77;;;7.07;;
47539;SDS011;33280;52.152;21.052;2023-05-24T10:46:03;13.77;;;7.38;;
47539;SDS011;33280;52.152;21.052;2023-05-24T10:48:34;11.20;;;7.15;;
47539;SDS011;33280;52.152;21.052;2023-05-24T10:54:09;13.75;;;7.47;;
47539;SDS011;33280;52.152;21.052;2023-05-24T10:56:45;13.82;;;7.07;;
47539;SDS011;33280;52.152;21.052;2023-05-24T10:59:30;11.07;;;7.20;;
47539;SDS011;33280;52.152;21.052;2023-05-24T11:02:03;13.60;;;6.93;;
47539;SDS011;33280;52.152;21.052;2023-05-24T11:04:44;15.20;;;7.30;;
47539;SDS011;33280;52.152;21.052;2023-05-24T11:07:12;12.48;;;7.38;;
47539;SDS011;33280;52.152;21.052;2023-05-24T11:09:40;12.93;;;7.43;;
47539;SDS011;33280;52.152;21.052;2023-05-24T11:12:18;14.20;;;7.57;;
47539;SDS011;33280;52.152;21.052;2023-05-24T11:14:49;10.35;;;6.88;;
47539;SDS011;33280;52.152;21.052;2023-05-24T11:17:19;12.90;;;7.18;;
47539;SDS011;33280;52.152;21.052;2023-05-24T11:19:54;12.90;;;7.50;;
47539;SDS011;33280;52.152;21.052;2023-05-24T11:22:24;16.42;;;7.13;;
47539;SDS011;33280;52.152;21.052;2023-05-24T11:24:52;10.98;;;6.95;;
47539;SDS011;33280;52.152;21.052;2023-05-24T11:27:19;9.88;;;7.22;;
47539;SDS011;33280;52.152;21.052;2023-05-24T11:29:47;13.35;;;7.30;;
47539;SDS011;33280;52.152;21.052;2023-05-24T11:32:15;9.90;;;6.63;;
47539;SDS011;33280;52.152;21.052;2023-05-24T11:34:45;9.48;;;6.43;;
47539;SDS011;33280;52.152;21.052;2023-05-24T11:37:12;13.10;;;6.70;;
47539;SDS011;33280;52.152;21.052;2023-05-24T11:39:43;10.40;;;7.13;;
47539;SDS011;33280;52.152;21.052;2023-05-24T11:42:16;10.20;;;6.82;;
47539;SDS011;33280;52.152;21.052;2023-05-24T11:44:43;12.43;;;7.90;;
47539;SDS011;33280;52.152;21.052;2023-05-24T11:47:13;10.40;;;6.90;;
47539;SDS011;33280;52.152;21.052;2023-05-24T11:49:40;11.13;;;6.80;;
47539;SDS011;33280;52.152;21.052;2023-05-24T11:52:07;10.93;;;6.80;;
47539;SDS011;33280;52.152;21.052;2023-05-24T11:54:34;10.50;;;6.97;;
47539;SDS011;33280;52.152;21.052;2023-05-24T11:57:03;7.88;;;6.25;;
47539;SDS011;33280;52.152;21.052;2023-05-24T11:59:31;10.90;;;6.60;;
47539;SDS011;33280;52.152;21.052;2023-05-24T12:01:59;13.63;;;7.45;;
47539;SDS011;33280;52.152;21.052;2023-05-24T12:04:29;8.85;;;6.55;;
47539;SDS011;33280;52.152;21.052;2023-05-24T12:06:57;10.95;;;6.93;;
47539;SDS011;33280;52.152;21.052;2023-05-24T12:09:25;8.63;;;6.22;;
47539;SDS011;33280;52.152;21.052;2023-05-24T12:11:53;7.68;;;5.97;;
47539;SDS011;33280;52.152;21.052;2023-05-24T12:14:24;9.45;;;6.10;;
47539;SDS011;33280;52.152;21.052;2023-05-24T12:16:56;11.65;;;7.10;;
47539;SDS011;33280;52.152;21.052;2023-05-24T12:19:25;11.45;;;6.60;;
47539;SDS011;33280;52.152;21.052;2023-05-24T12:22:00;9.70;;;5.97;;
47539;SDS011;33280;52.152;21.052;2023-05-24T12:24:32;9.93;;;6.18;;
47539;SDS011;33280;52.152;21.052;2023-05-24T12:27:00;10.02;;;6.00;;
47539;SDS011;33280;52.152;21.052;2023-05-24T12:29:32;10.68;;;6.28;;
47539;SDS011;33280;52.152;21.052;2023-05-24T12:32:00;8.05;;;5.68;;
47539;SDS011;33280;52.152;21.052;2023-05-24T12:34:28;8.63;;;6.05;;
47539;SDS011;33280;52.152;21.052;2023-05-24T12:36:55;11.05;;;5.97;;
47539;SDS011;33280;52.152;21.052;2023-05-24T12:39:23;8.85;;;5.75;;
47539;SDS011;33280;52.152;21.052;2023-05-24T12:41:57;8.70;;;5.32;;
47539;SDS011;33280;52.152;21.052;2023-05-24T12:44:28;11.57;;;6.03;;
47539;SDS011;33280;52.152;21.052;2023-05-24T12:46:58;12.20;;;5.93;;
47539;SDS011;33280;52.152;21.052;2023-05-24T12:49:26;7.63;;;5.50;;
47539;SDS011;33280;52.152;21.052;2023-05-24T12:51:54;9.57;;;5.70;;
47539;SDS011;33280;52.152;21.052;2023-05-24T12:54:26;6.80;;;4.97;;
47539;SDS011;33280;52.152;21.052;2023-05-24T12:56:54;6.70;;;4.72;;
47539;SDS011;33280;52.152;21.052;2023-05-24T12:59:23;7.55;;;4.35;;
47539;SDS011;33280;52.152;21.052;2023-05-24T13:01:51;7.32;;;4.90;;
47539;SDS011;33280;52.152;21.052;2023-05-24T13:04:20;8.00;;;5.05;;
47539;SDS011;33280;52.152;21.052;2023-05-24T13:06:48;7.90;;;4.95;;
47539;SDS011;33280;52.152;21.052;2023-05-24T13:09:15;8.85;;;5.13;;
47539;SDS011;33280;52.152;21.052;2023-05-24T13:11:47;7.70;;;4.80;;
47539;SDS011;33280;52.152;21.052;2023-05-24T13:14:15;7.60;;;5.18;;
47539;SDS011;33280;52.152;21.052;2023-05-24T13:16:43;8.15;;;4.93;;
47539;SDS011;33280;52.152;21.052;2023-05-24T13:19:11;6.60;;;4.70;;
47539;SDS011;33280;52.152;21.052;2023-05-24T13:21:38;5.78;;;4.50;;
47539;SDS011;33280;52.152;21.052;2023-05-24T13:24:06;6.45;;;4.78;;
47539;SDS011;33280;52.152;21.052;2023-05-24T13:26:34;7.25;;;4.90;;
47539;SDS011;33280;52.152;21.052;2023-05-24T13:29:04;7.85;;;4.90;;
47539;SDS011;33280;52.152;21.052;2023-05-24T13:31:34;9.27;;;5.72;;
47539;SDS011;33280;52.152;21.052;2023-05-24T13:34:08;6.72;;;5.05;;
47539;SDS011;33280;52.152;21.052;2023-05-24T13:36:38;6.43;;;5.10;;
47539;SDS011;33280;52.152;21.052;2023-05-24T13:39:15;7.15;;;5.00;;
47539;SDS011;33280;52.152;21.052;2023-05-24T13:41:43;7.18;;;5.22;;
47539;SDS011;33280;52.152;21.052;2023-05-24T13:44:11;6.20;;;4.97;;
47539;SDS011;33280;52.152;21.052;2023-05-24T13:46:39;7.78;;;5.15;;
47539;SDS011;33280;52.152;21.052;2023-05-24T13:49:08;7.97;;;5.15;;
47539;SDS011;33280;52.152;21.052;2023-05-24T13:51:36;6.53;;;5.18;;
47539;SDS011;33280;52.152;21.052;2023-05-24T13:54:04;8.95;;;5.32;;
47539;SDS011;33280;52.152;21.052;2023-05-24T13:56:33;5.13;;;4.57;;
47539;SDS011;33280;52.152;21.052;2023-05-24T13:59:01;8.77;;;5.25;;
47539;SDS011;33280;52.152;21.052;2023-05-24T14:01:30;8.27;;;5.10;;
47539;SDS011;33280;52.152;21.052;2023-05-24T14:03:58;7.95;;;4.90;;
47539;SDS011;33280;52.152;21.052;2023-05-24T14:06:27;9.65;;;5.40;;
47539;SDS011;33280;52.152;21.052;2023-05-24T14:08:54;8.50;;;5.38;;
47539;SDS011;33280;52.152;21.052;2023-05-24T14:11:21;6.30;;;5.35;;
47539;SDS011;33280;52.152;21.052;2023-05-24T14:13:50;9.25;;;5.45;;
47539;SDS011;33280;52.152;21.052;2023-05-24T14:16:20;7.18;;;5.30;;
47539;SDS011;33280;52.152;21.052;2023-05-24T14:18:47;8.23;;;5.43;;
47539;SDS011;33280;52.152;21.052;2023-05-24T14:21:16;7.30;;;5.43;;
47539;SDS011;33280;52.152;21.052;2023-05-24T14:23:44;7.82;;;5.63;;
47539;SDS011;33280;52.152;21.052;2023-05-24T14:26:11;9.25;;;5.60;;
47539;SDS011;33280;52.152;21.052;2023-05-24T14:28:41;9.43;;;5.68;;
47539;SDS011;33280;52.152;21.052;2023-05-24T14:31:08;7.85;;;5.72;;
47539;SDS011;33280;52.152;21.052;2023-05-24T14:33:35;9.18;;;5.50;;
47539;SDS011;33280;52.152;21.052;2023-05-24T14:36:03;6.55;;;5.00;;
47539;SDS011;33280;52.152;21.052;2023-05-24T14:38:31;10.90;;;5.22;;
47539;SDS011;33280;52.152;21.052;2023-05-24T14:40:58;7.80;;;5.30;;
47539;SDS011;33280;52.152;21.052;2023-05-24T14:43:27;8.20;;;5.32;;
47539;SDS011;33280;52.152;21.052;2023-05-24T14:45:53;10.13;;;5.40;;
47539;SDS011;33280;52.152;21.052;2023-05-24T14:48:23;7.15;;;5.30;;
47539;SDS011;33280;52.152;21.052;2023-05-24T14:50:51;8.25;;;5.15;;
47539;SDS011;33280;52.152;21.052;2023-05-24T14:53:21;7.40;;;5.28;;
47539;SDS011;33280;52.152;21.052;2023-05-24T14:55:48;6.88;;;5.00;;